New Wells, Missouri
Current Conditions -  °F | °C
As of 8:53 PM on Sunday 23 Nov 2014 (Local Time) from KCGI Reporting Station
Overcast Overcast  
Wind Chill: 57°   Ceiling: 400
Heat Index: 57°   Visibility: 7mi
Dew Point: 56°   Wind: 18mph
Humidity: 96%   Direction: 210°SSW
Pressure: 29.34"   Gusts: NA
Location:  37.5371°N, 89.5821°W
Report Text: KCGI 240253Z AUTO 21016KT 7SM OVC004 14/13 A2934 RMK AO2 SLP935 60002 T01390133 53013 TSNO
Loading
Personal Weather Stations






























Interactive Weather Map New forecast layout! Learn more

10-Day Weather Forecast

Advertisements
Track Severe Weather on mobile